Time;durP1;ratioP1;P1;durP2;ratioP2;P2;SDS_P1;SDS_P2;PMS_P1;PMS_P2;Temp;Humidity;BMP_temperature;BMP_pressure;BME280_temperature;BME280_humidity;BME280_pressure;Samples;Min_cycle;Max_cycle;Signal;HPM_P1;HPM_P2
2024/03/12 00:01:56;;;;;;;5.70;3.17;;;;;;;;;;7573095;19;20086;-74
2024/03/12 00:04:29;;;;;;;3.78;2.70;;;;;;;;;;7567429;19;21183;-74
2024/03/12 00:07:02;;;;;;;3.85;2.58;;;;;;;;;;7575042;19;20500;-73
2024/03/12 00:09:35;;;;;;;5.35;2.63;;;;;;;;;;7555039;19;20429;-76
2024/03/12 00:12:10;;;;;;;3.25;2.50;;;;;;;;;;7564149;19;20790;-73
2024/03/12 00:14:44;;;;;;;4.18;2.83;;;;;;;;;;7581624;19;20585;-73
2024/03/12 00:17:19;;;;;;;5.70;2.70;;;;;;;;;;7574418;19;20117;-73
2024/03/12 00:19:53;;;;;;;5.07;2.13;;;;;;;;;;7568890;19;20081;-73
2024/03/12 00:22:26;;;;;;;5.75;2.70;;;;;;;;;;7562279;19;20022;-73
2024/03/12 00:24:58;;;;;;;3.67;2.45;;;;;;;;;;7587747;19;20520;-73
2024/03/12 00:27:32;;;;;;;3.08;2.42;;;;;;;;;;7571832;19;20010;-73
2024/03/12 00:30:08;;;;;;;2.70;2.20;;;;;;;;;;7579428;19;20046;-73
2024/03/12 00:32:43;;;;;;;3.33;2.20;;;;;;;;;;7575076;19;20018;-74
2024/03/12 00:35:16;;;;;;;4.60;2.60;;;;;;;;;;7574077;19;20847;-75
2024/03/12 00:37:50;;;;;;;3.55;2.75;;;;;;;;;;7574569;19;20026;-75
2024/03/12 00:40:32;;;;;;;3.63;2.50;;;;;;;;;;7568497;19;20014;-73
2024/03/12 00:43:07;;;;;;;4.43;3.03;;;;;;;;;;7584844;19;20102;-74
2024/03/12 00:45:41;;;;;;;5.50;2.42;;;;;;;;;;7569037;19;20022;-74
2024/03/12 00:48:14;;;;;;;6.10;3.05;;;;;;;;;;7565160;19;20014;-75
2024/03/12 00:50:48;;;;;;;5.00;2.70;;;;;;;;;;7569995;19;20022;-73
2024/03/12 00:53:21;;;;;;;3.83;2.75;;;;;;;;;;7574977;19;20014;-73
2024/03/12 00:55:56;;;;;;;4.70;2.60;;;;;;;;;;7581292;19;20120;-73
2024/03/12 00:58:28;;;;;;;3.53;2.70;;;;;;;;;;7583355;19;20014;-73
2024/03/12 01:01:03;;;;;;;6.60;2.80;;;;;;;;;;7586289;19;20318;-73
2024/03/12 01:03:36;;;;;;;3.55;2.20;;;;;;;;;;7574347;19;20097;-73
2024/03/12 01:06:11;;;;;;;3.93;2.67;;;;;;;;;;7573278;19;20017;-74
2024/03/12 01:08:43;;;;;;;5.95;2.88;;;;;;;;;;7571044;19;20030;-74
2024/03/12 01:11:16;;;;;;;4.70;2.73;;;;;;;;;;7574080;19;20014;-74
2024/03/12 01:13:50;;;;;;;5.07;3.03;;;;;;;;;;7574122;19;20105;-73
2024/03/12 01:16:27;;;;;;;3.15;2.50;;;;;;;;;;7572520;19;20025;-74
2024/03/12 01:19:01;;;;;;;3.85;2.40;;;;;;;;;;7568779;19;20056;-73
2024/03/12 01:21:34;;;;;;;4.93;3.00;;;;;;;;;;7575541;19;20006;-75
2024/03/12 01:24:07;;;;;;;10.38;4.85;;;;;;;;;;7583199;19;20034;-73
2024/03/12 01:26:41;;;;;;;6.17;3.10;;;;;;;;;;7584768;19;20045;-73
2024/03/12 01:29:14;;;;;;;4.35;2.70;;;;;;;;;;7580655;19;20591;-73
2024/03/12 01:31:47;;;;;;;5.30;2.88;;;;;;;;;;7571913;19;20075;-73
2024/03/12 01:34:25;;;;;;;5.25;2.83;;;;;;;;;;7576679;19;20051;-74
2024/03/12 01:36:58;;;;;;;4.88;2.78;;;;;;;;;;7598155;19;21506;-74
2024/03/12 01:39:38;;;;;;;7.17;2.77;;;;;;;;;;7586882;19;20470;-73
2024/03/12 01:42:11;;;;;;;3.95;3.00;;;;;;;;;;7580464;19;20291;-73
2024/03/12 01:44:45;;;;;;;4.10;3.10;;;;;;;;;;7584568;19;20029;-73
2024/03/12 01:47:18;;;;;;;3.35;2.72;;;;;;;;;;7585142;19;20014;-73
2024/03/12 01:49:52;;;;;;;7.53;2.97;;;;;;;;;;7586225;19;20018;-75
2024/03/12 01:52:25;;;;;;;;;;;;;;;;;;7585982;19;20054;-73
2024/03/12 01:54:59;;;;;;;3.50;2.88;;;;;;;;;;7584264;19;20969;-75
2024/03/12 01:57:33;;;;;;;4.65;3.10;;;;;;;;;;7586740;19;20022;-76
2024/03/12 02:00:10;;;;;;;3.97;2.83;;;;;;;;;;7580322;19;20046;-75
2024/03/12 02:02:47;;;;;;;8.45;3.50;;;;;;;;;;7576339;19;20026;-74
2024/03/12 02:05:22;;;;;;;4.20;2.88;;;;;;;;;;7576139;19;20026;-74
2024/03/12 02:07:55;;;;;;;5.20;3.03;;;;;;;;;;7568936;19;20022;-75
2024/03/12 02:10:28;;;;;;;4.83;3.10;;;;;;;;;;7575156;19;20042;-74
2024/03/12 02:13:00;;;;;;;3.60;2.83;;;;;;;;;;7576475;19;20022;-75
2024/03/12 02:15:34;;;;;;;5.90;3.77;;;;;;;;;;7566102;19;20022;-74
2024/03/12 02:18:08;;;;;;;3.58;2.92;;;;;;;;;;7579787;19;20051;-72
2024/03/12 02:20:41;;;;;;;4.63;3.03;;;;;;;;;;7573811;19;20029;-73
2024/03/12 02:23:14;;;;;;;4.68;2.83;;;;;;;;;;7572314;19;20334;-73
2024/03/12 02:25:47;;;;;;;4.63;2.78;;;;;;;;;;7578300;19;20018;-73
2024/03/12 02:28:20;;;;;;;4.47;2.95;;;;;;;;;;7587495;19;20024;-73
2024/03/12 02:30:53;;;;;;;5.05;3.22;;;;;;;;;;7588289;19;20041;-73
2024/03/12 02:33:26;;;;;;;3.78;2.90;;;;;;;;;;7578249;19;20109;-75
2024/03/12 02:35:58;;;;;;;3.83;2.83;;;;;;;;;;7579201;19;20097;-73
2024/03/12 02:38:31;;;;;;;3.78;2.90;;;;;;;;;;7587001;19;20519;-73
2024/03/12 02:41:07;;;;;;;3.23;2.87;;;;;;;;;;7576598;19;20106;-75
2024/03/12 02:43:41;;;;;;;7.10;2.72;;;;;;;;;;7586474;19;20275;-73
2024/03/12 02:46:14;;;;;;;6.38;2.97;;;;;;;;;;7579582;19;20022;-75
2024/03/12 02:48:47;;;;;;;3.53;2.85;;;;;;;;;;7576777;19;20022;-75
2024/03/12 02:51:20;;;;;;;7.60;3.43;;;;;;;;;;7585338;19;20019;-75
2024/03/12 02:53:52;;;;;;;4.57;3.35;;;;;;;;;;7587097;19;21007;-74
2024/03/12 02:56:25;;;;;;;4.15;3.10;;;;;;;;;;7547340;19;20022;-75
2024/03/12 02:58:58;;;;;;;5.05;3.20;;;;;;;;;;7569794;19;20105;-73
2024/03/12 03:01:30;;;;;;;4.40;3.45;;;;;;;;;;7570995;19;20030;-73
2024/03/12 03:04:04;;;;;;;5.63;3.58;;;;;;;;;;7580376;19;20075;-73
2024/03/12 03:06:37;;;;;;;4.20;2.80;;;;;;;;;;7593744;19;20130;-75
2024/03/12 03:09:10;;;;;;;4.20;3.00;;;;;;;;;;7581507;19;20026;-74
2024/03/12 03:11:43;;;;;;;6.78;3.25;;;;;;;;;;7574153;19;20033;-73
2024/03/12 03:14:16;;;;;;;3.93;3.27;;;;;;;;;;7579996;19;20006;-76
2024/03/12 03:16:48;;;;;;;4.25;3.17;;;;;;;;;;7581933;19;20094;-73
2024/03/12 03:19:22;;;;;;;7.22;3.55;;;;;;;;;;7582077;19;20139;-73
2024/03/12 03:21:55;;;;;;;4.68;3.42;;;;;;;;;;7582375;19;20011;-73
2024/03/12 03:24:28;;;;;;;4.60;3.50;;;;;;;;;;7586416;19;20094;-73
2024/03/12 03:27:01;;;;;;;4.63;3.60;;;;;;;;;;7589213;19;20025;-73
2024/03/12 03:29:35;;;;;;;7.63;3.70;;;;;;;;;;7571479;19;20093;-73
2024/03/12 03:32:08;;;;;;;4.45;3.22;;;;;;;;;;7575566;19;20018;-75
2024/03/12 03:34:42;;;;;;;7.47;3.90;;;;;;;;;;7582299;19;22181;-74
2024/03/12 03:37:15;;;;;;;5.78;3.83;;;;;;;;;;7580954;19;20034;-74
2024/03/12 03:39:48;;;;;;;5.20;3.53;;;;;;;;;;7583261;19;20082;-74
2024/03/12 03:42:21;;;;;;;7.53;3.95;;;;;;;;;;7577615;19;20752;-73
2024/03/12 03:44:54;;;;;;;5.63;4.45;;;;;;;;;;7578723;19;20617;-73
2024/03/12 03:47:33;;;;;;;9.73;3.67;;;;;;;;;;7575000;19;21002;-72
2024/03/12 03:50:07;;;;;;;6.03;4.28;;;;;;;;;;7576831;19;20018;-75
2024/03/12 03:52:41;;;;;;;7.53;4.22;;;;;;;;;;7587004;19;21356;-74
2024/03/12 03:55:15;;;;;;;5.88;3.72;;;;;;;;;;7585803;19;20059;-75
2024/03/12 03:57:51;;;;;;;5.25;3.80;;;;;;;;;;7577738;19;20029;-73
2024/03/12 04:00:28;;;;;;;4.97;3.90;;;;;;;;;;7577084;19;20101;-72
2024/03/12 04:03:02;;;;;;;5.63;4.30;;;;;;;;;;7591787;19;20018;-73
2024/03/12 04:05:35;;;;;;;5.03;3.92;;;;;;;;;;7580188;19;20019;-72
2024/03/12 04:08:08;;;;;;;7.60;4.60;;;;;;;;;;7585319;19;20014;-73
2024/03/12 04:10:42;;;;;;;6.00;4.75;;;;;;;;;;7576138;19;20030;-73
2024/03/12 04:13:16;;;;;;;7.65;4.68;;;;;;;;;;7581114;19;20014;-73
2024/03/12 04:15:48;;;;;;;5.82;4.32;;;;;;;;;;7576268;19;20696;-73
2024/03/12 04:18:22;;;;;;;9.15;6.00;;;;;;;;;;7583528;19;20043;-73
2024/03/12 04:20:55;;;;;;;6.72;4.43;;;;;;;;;;7559754;19;20050;-73
2024/03/12 04:23:28;;;;;;;7.05;4.35;;;;;;;;;;7571415;19;20022;-73
2024/03/12 04:26:00;;;;;;;7.03;4.68;;;;;;;;;;7556861;19;20011;-75
2024/03/12 04:28:33;;;;;;;5.78;4.60;;;;;;;;;;7568351;19;20026;-73
2024/03/12 04:31:07;;;;;;;5.40;4.07;;;;;;;;;;7576866;19;20125;-73
2024/03/12 04:33:40;;;;;;;8.02;4.38;;;;;;;;;;7567239;19;20038;-73
2024/03/12 04:36:13;;;;;;;6.18;4.75;;;;;;;;;;7574513;19;20010;-73
2024/03/12 04:38:46;;;;;;;;;;;;;;;;;;7573487;19;20019;-74
2024/03/12 04:41:20;;;;;;;8.38;4.80;;;;;;;;;;7563646;19;19934;-73
2024/03/12 04:43:53;;;;;;;5.43;4.63;;;;;;;;;;7563556;19;23467;-73
2024/03/12 04:46:26;;;;;;;7.82;5.40;;;;;;;;;;7528331;19;20089;-73
2024/03/12 04:48:58;;;;;;;5.00;4.28;;;;;;;;;;7546550;19;20367;-74
2024/03/12 04:51:31;;;;;;;6.13;5.00;;;;;;;;;;7565699;19;20905;-72
2024/03/12 04:54:05;;;;;;;8.73;5.97;;;;;;;;;;7570693;19;20030;-74
2024/03/12 04:56:37;;;;;;;7.25;4.68;;;;;;;;;;7565312;19;20322;-74
2024/03/12 04:59:11;;;;;;;5.15;4.47;;;;;;;;;;7574615;19;20722;-74
2024/03/12 05:01:45;;;;;;;7.57;5.43;;;;;;;;;;7579535;19;20090;-72
2024/03/12 05:04:19;;;;;;;7.55;4.30;;;;;;;;;;7573458;19;20010;-74
2024/03/12 05:06:55;;;;;;;8.07;4.80;;;;;;;;;;7562988;19;20014;-74
2024/03/12 05:09:28;;;;;;;6.88;5.20;;;;;;;;;;7560465;19;20038;-74
2024/03/12 05:12:01;;;;;;;9.55;6.35;;;;;;;;;;7569773;19;20038;-73
2024/03/12 05:14:34;;;;;;;8.23;6.35;;;;;;;;;;7530534;19;21069;-72
2024/03/12 05:17:06;;;;;;;6.97;5.33;;;;;;;;;;7554290;19;21106;-74
2024/03/12 05:19:39;;;;;;;9.77;6.15;;;;;;;;;;7562748;19;20318;-74
2024/03/12 05:22:12;;;;;;;6.43;5.25;;;;;;;;;;7571607;19;20057;-73
2024/03/12 05:24:45;;;;;;;6.82;5.47;;;;;;;;;;7534220;19;20026;-72
2024/03/12 05:27:32;;;;;;;8.95;6.10;;;;;;;;;;7565755;19;20286;-75
2024/03/12 05:30:14;;;;;;;9.48;6.97;;;;;;;;;;7551271;19;20094;-74
2024/03/12 05:32:48;;;;;;;10.18;6.43;;;;;;;;;;7571519;19;20030;-74
2024/03/12 05:35:22;;;;;;;9.20;6.22;;;;;;;;;;7577003;19;20022;-72
2024/03/12 05:38:02;;;;;;;8.70;6.50;;;;;;;;;;7573264;19;20006;-73
2024/03/12 05:40:43;;;;;;;8.40;6.13;;;;;;;;;;7581970;19;20975;-73
2024/03/12 05:49:02;;;;;;;10.98;7.15;;;;;;;;;;7580800;19;20042;-73
2024/03/12 05:51:36;;;;;;;6.90;5.80;;;;;;;;;;7558256;19;20022;-72
2024/03/12 05:54:09;;;;;;;9.82;6.80;;;;;;;;;;7545809;19;20014;-74
2024/03/12 05:56:42;;;;;;;9.82;6.47;;;;;;;;;;7573216;19;20033;-73
2024/03/12 05:59:15;;;;;;;8.48;7.28;;;;;;;;;;7569238;19;20025;-73
2024/03/12 06:01:52;;;;;;;8.40;6.53;;;;;;;;;;7565937;19;20015;-74
2024/03/12 06:04:31;;;;;;;20.98;11.82;;;;;;;;;;7586610;19;20703;-73
2024/03/12 06:07:04;;;;;;;10.85;7.15;;;;;;;;;;7562655;19;20368;-73
2024/03/12 06:09:37;;;;;;;10.90;7.80;;;;;;;;;;7539207;19;20018;-72
2024/03/12 06:12:10;;;;;;;11.97;7.60;;;;;;;;;;7568257;19;20018;-73
2024/03/12 06:14:43;;;;;;;11.97;7.40;;;;;;;;;;7561725;19;20514;-73
2024/03/12 06:17:16;;;;;;;10.57;7.80;;;;;;;;;;7543847;19;20029;-74
2024/03/12 06:19:48;;;;;;;13.53;8.70;;;;;;;;;;7567635;19;20302;-75
2024/03/12 06:22:21;;;;;;;12.60;8.50;;;;;;;;;;7552187;19;20378;-75
2024/03/12 06:24:54;;;;;;;11.27;8.63;;;;;;;;;;7549050;19;20018;-73
2024/03/12 06:27:27;;;;;;;11.88;8.48;;;;;;;;;;7578428;19;20060;-75
2024/03/12 06:30:00;;;;;;;9.65;8.10;;;;;;;;;;7554065;19;20014;-75
2024/03/12 06:32:35;;;;;;;9.05;6.97;;;;;;;;;;7564410;19;20090;-76
2024/03/12 06:35:08;;;;;;;11.60;8.50;;;;;;;;;;7565445;19;20770;-73
2024/03/12 06:37:41;;;;;;;9.82;7.00;;;;;;;;;;7557290;19;20079;-73
2024/03/12 06:40:16;;;;;;;9.68;7.13;;;;;;;;;;7596476;19;20022;-74
2024/03/12 06:42:50;;;;;;;11.05;7.25;;;;;;;;;;7592114;19;20077;-75
2024/03/12 06:45:23;;;;;;;13.38;7.43;;;;;;;;;;7578348;19;20041;-75
2024/03/12 06:47:56;;;;;;;9.07;7.03;;;;;;;;;;7590902;19;20025;-76
2024/03/12 06:50:30;;;;;;;9.20;6.82;;;;;;;;;;7574802;19;20103;-76
2024/03/12 06:53:05;;;;;;;11.48;6.90;;;;;;;;;;7572669;19;20046;-76
2024/03/12 06:55:38;;;;;;;10.18;7.10;;;;;;;;;;7555366;19;20066;-75
2024/03/12 06:58:18;;;;;;;10.77;7.00;;;;;;;;;;7583600;19;20090;-75
2024/03/12 07:00:52;;;;;;;10.25;6.78;;;;;;;;;;7555650;19;20018;-76
2024/03/12 07:03:27;;;;;;;9.30;5.72;;;;;;;;;;7585201;19;20029;-76
2024/03/12 07:06:00;;;;;;;9.23;6.22;;;;;;;;;;7573875;19;20014;-75
2024/03/12 07:08:32;;;;;;;9.07;5.90;;;;;;;;;;7585268;19;20042;-75
2024/03/12 07:11:07;;;;;;;8.03;5.50;;;;;;;;;;7583072;19;20117;-74
2024/03/12 07:13:43;;;;;;;8.68;5.82;;;;;;;;;;7587282;19;20015;-75
2024/03/12 07:16:15;;;;;;;9.32;5.80;;;;;;;;;;7583321;19;20026;-75
2024/03/12 07:18:48;;;;;;;7.50;5.50;;;;;;;;;;7584845;19;21004;-75
2024/03/12 07:21:22;;;;;;;7.60;5.53;;;;;;;;;;7592689;19;20277;-75
2024/03/12 07:23:55;;;;;;;8.10;5.72;;;;;;;;;;7569549;19;21818;-75
2024/03/12 07:26:28;;;;;;;18.92;10.75;;;;;;;;;;7580163;19;20035;-75
2024/03/12 07:29:02;;;;;;;7.13;5.28;;;;;;;;;;7578305;19;20717;-75
2024/03/12 07:31:34;;;;;;;11.02;5.80;;;;;;;;;;7585314;19;20019;-74
2024/03/12 07:34:08;;;;;;;8.65;5.97;;;;;;;;;;7588032;19;20093;-74
2024/03/12 07:36:42;;;;;;;9.33;5.13;;;;;;;;;;7584672;19;20110;-75
2024/03/12 07:39:31;;;;;;;7.53;4.38;;;;;;;;;;7572215;19;20019;-74
2024/03/12 07:42:09;;;;;;;9.57;4.75;;;;;;;;;;7582558;19;20571;-74
2024/03/12 07:44:47;;;;;;;5.20;4.38;;;;;;;;;;7577144;19;20029;-74
2024/03/12 07:47:20;;;;;;;8.07;4.18;;;;;;;;;;7592215;19;20018;-74
2024/03/12 07:49:54;;;;;;;8.25;4.20;;;;;;;;;;7578424;19;20017;-74
2024/03/12 07:52:27;;;;;;;6.38;3.65;;;;;;;;;;7583376;19;20044;-76
2024/03/12 07:55:00;;;;;;;4.97;3.38;;;;;;;;;;7592508;19;20025;-75
2024/03/12 07:57:35;;;;;;;5.68;3.33;;;;;;;;;;7586143;19;20022;-74
2024/03/12 08:00:14;;;;;;;8.57;3.53;;;;;;;;;;7580271;19;20530;-74
2024/03/12 08:02:47;;;;;;;4.72;3.60;;;;;;;;;;7584610;19;20018;-75
2024/03/12 08:05:20;;;;;;;4.63;3.50;;;;;;;;;;7577073;19;20014;-75
2024/03/12 08:07:53;;;;;;;3.70;2.88;;;;;;;;;;7572354;19;20022;-75
2024/03/12 08:10:26;;;;;;;3.50;2.60;;;;;;;;;;7573570;19;20543;-75
2024/03/12 08:13:00;;;;;;;6.07;3.13;;;;;;;;;;7579950;19;21619;-74
2024/03/12 08:15:32;;;;;;;7.45;3.20;;;;;;;;;;7582795;19;20014;-74
2024/03/12 08:18:05;;;;;;;10.00;3.25;;;;;;;;;;7587653;19;20929;-75
2024/03/12 08:20:52;;;;;;;5.25;2.95;;;;;;;;;;7577884;19;20059;-74
2024/03/12 08:23:27;;;;;;;4.68;2.55;;;;;;;;;;7569593;19;20019;-74
2024/03/12 08:26:01;;;;;;;4.20;2.45;;;;;;;;;;7579075;19;20878;-74
2024/03/12 08:28:34;;;;;;;3.55;2.60;;;;;;;;;;7587789;19;20022;-74
2024/03/12 08:31:07;;;;;;;4.78;2.80;;;;;;;;;;7575763;19;20033;-75
2024/03/12 08:33:54;;;;;;;6.20;2.47;;;;;;;;;;7581455;19;21026;-74
2024/03/12 08:36:27;;;;;;;4.40;2.27;;;;;;;;;;7584077;19;20061;-75
2024/03/12 08:39:00;;;;;;;6.67;2.60;;;;;;;;;;7583758;19;20018;-75
2024/03/12 08:41:34;;;;;;;6.10;2.10;;;;;;;;;;7585248;19;20441;-74
2024/03/12 08:44:07;;;;;;;;;;;;;;;;;;7582778;19;20054;-74
2024/03/12 08:46:39;;;;;;;7.90;2.65;;;;;;;;;;7591099;19;19941;-74
2024/03/12 08:49:12;;;;;;;5.50;2.63;;;;;;;;;;7584737;19;20105;-75
2024/03/12 08:51:45;;;;;;;4.00;2.75;;;;;;;;;;7588945;19;20023;-75
2024/03/12 08:54:18;;;;;;;4.63;2.60;;;;;;;;;;7553314;19;20018;-75
2024/03/12 08:56:51;;;;;;;5.28;2.53;;;;;;;;;;7570946;19;20007;-74
2024/03/12 08:59:24;;;;;;;5.20;2.17;;;;;;;;;;7571480;19;20014;-75
2024/03/12 09:01:59;;;;;;;7.75;2.30;;;;;;;;;;7566483;19;20026;-75
2024/03/12 09:04:33;;;;;;;6.00;2.33;;;;;;;;;;7576072;19;20025;-75
2024/03/12 09:07:08;;;;;;;7.45;2.70;;;;;;;;;;7575172;19;20010;-74
2024/03/12 09:09:41;;;;;;;5.18;2.15;;;;;;;;;;7572361;19;20046;-74
2024/03/12 09:12:14;;;;;;;6.40;2.47;;;;;;;;;;7583159;19;21441;-74
2024/03/12 09:14:47;;;;;;;5.03;2.65;;;;;;;;;;7581162;19;20596;-74
2024/03/12 09:17:20;;;;;;;4.82;2.42;;;;;;;;;;7580078;19;20015;-75
2024/03/12 09:19:53;;;;;;;4.65;2.67;;;;;;;;;;7578602;19;20060;-74
2024/03/12 09:22:28;;;;;;;5.03;2.28;;;;;;;;;;7564905;19;20101;-74
2024/03/12 09:25:01;;;;;;;4.30;2.50;;;;;;;;;;7564515;19;20102;-74
2024/03/12 09:27:33;;;;;;;3.47;2.37;;;;;;;;;;7585264;19;20026;-74
2024/03/12 09:30:07;;;;;;;6.15;2.17;;;;;;;;;;7577022;19;20703;-74
2024/03/12 09:32:40;;;;;;;2.88;2.25;;;;;;;;;;7584063;19;20149;-74
2024/03/12 09:35:13;;;;;;;3.65;2.08;;;;;;;;;;7579866;19;20105;-74
2024/03/12 09:37:46;;;;;;;2.65;2.13;;;;;;;;;;7587525;19;20496;-74
2024/03/12 09:40:18;;;;;;;5.13;2.30;;;;;;;;;;7583905;19;20019;-74
2024/03/12 09:42:52;;;;;;;6.18;2.08;;;;;;;;;;7579211;19;20018;-75
2024/03/12 09:45:25;;;;;;;2.53;1.80;;;;;;;;;;7576939;19;20019;-74
2024/03/12 09:47:58;;;;;;;4.10;2.27;;;;;;;;;;7585505;19;20014;-75
2024/03/12 09:50:31;;;;;;;4.55;2.22;;;;;;;;;;7587799;19;20032;-75
2024/03/12 09:53:05;;;;;;;3.65;1.80;;;;;;;;;;7585539;19;20046;-75
2024/03/12 09:55:39;;;;;;;2.45;1.70;;;;;;;;;;7590682;19;20455;-75
2024/03/12 09:58:13;;;;;;;3.88;1.88;;;;;;;;;;7589672;19;20019;-74
2024/03/12 10:00:46;;;;;;;2.93;1.73;;;;;;;;;;7584145;19;20055;-75
2024/03/12 10:03:19;;;;;;;4.72;1.50;;;;;;;;;;7588867;19;20052;-74
2024/03/12 10:05:53;;;;;;;3.10;1.60;;;;;;;;;;7591378;19;20108;-75
2024/03/12 10:08:31;;;;;;;3.95;1.58;;;;;;;;;;7577940;19;20101;-74
2024/03/12 10:11:07;;;;;;;2.75;1.50;;;;;;;;;;7579208;19;20029;-74
2024/03/12 10:13:43;;;;;;;5.30;1.63;;;;;;;;;;7585348;19;20030;-75
2024/03/12 10:16:18;;;;;;;4.00;2.05;;;;;;;;;;7580696;19;20017;-74
2024/03/12 10:19:11;;;;;;;4.80;1.92;;;;;;;;;;7588605;19;20053;-74
2024/03/12 10:21:49;;;;;;;4.10;1.80;;;;;;;;;;7586450;19;20023;-74
2024/03/12 10:24:21;;;;;;;4.75;2.10;;;;;;;;;;7588449;19;21534;-74
2024/03/12 10:27:01;;;;;;;3.63;1.90;;;;;;;;;;7583119;19;20379;-74
2024/03/12 10:29:37;;;;;;;10.98;2.20;;;;;;;;;;7589275;19;20118;-73
2024/03/12 10:32:20;;;;;;;4.88;1.90;;;;;;;;;;7577866;19;20022;-74
2024/03/12 10:34:53;;;;;;;2.63;2.03;;;;;;;;;;7582945;19;20060;-74
2024/03/12 10:37:30;;;;;;;6.13;2.60;;;;;;;;;;7587215;19;20082;-75
2024/03/12 10:40:16;;;;;;;5.97;2.33;;;;;;;;;;7575793;19;20060;-75
2024/03/12 10:42:57;;;;;;;4.43;2.20;;;;;;;;;;7582149;19;20102;-75
2024/03/12 10:45:31;;;;;;;6.88;2.78;;;;;;;;;;7576839;19;20018;-75
2024/03/12 10:48:06;;;;;;;3.17;1.90;;;;;;;;;;7576057;19;20349;-75
2024/03/12 10:50:40;;;;;;;8.20;2.58;;;;;;;;;;7583723;19;20014;-74
2024/03/12 10:53:13;;;;;;;2.70;1.95;;;;;;;;;;7577210;19;20018;-75
2024/03/12 10:55:46;;;;;;;4.40;2.35;;;;;;;;;;7584129;19;20026;-74
2024/03/12 10:58:19;;;;;;;4.13;2.35;;;;;;;;;;7587697;19;20029;-74
2024/03/12 11:00:52;;;;;;;4.47;1.95;;;;;;;;;;7573544;19;20021;-76
2024/03/12 11:03:25;;;;;;;4.95;2.20;;;;;;;;;;7582710;19;20484;-76
2024/03/12 11:05:59;;;;;;;7.55;2.45;;;;;;;;;;7581018;19;20015;-76
2024/03/12 11:08:32;;;;;;;6.25;2.25;;;;;;;;;;7583670;19;20021;-76
2024/03/12 11:11:08;;;;;;;2.80;2.20;;;;;;;;;;7576298;19;20085;-76
2024/03/12 11:13:41;;;;;;;3.22;2.30;;;;;;;;;;7593684;19;20014;-75
2024/03/12 11:16:17;;;;;;;4.10;2.38;;;;;;;;;;7580328;19;20046;-76
2024/03/12 11:18:51;;;;;;;2.00;1.60;;;;;;;;;;7579526;19;20416;-74
2024/03/12 11:21:30;;;;;;;3.83;1.53;;;;;;;;;;7586280;19;20101;-75
2024/03/12 11:24:03;;;;;;;4.82;1.40;;;;;;;;;;7573104;19;20006;-76
2024/03/12 11:26:36;;;;;;;2.38;1.77;;;;;;;;;;7581759;19;20023;-74
2024/03/12 11:29:11;;;;;;;2.70;1.40;;;;;;;;;;7585111;19;20015;-74
2024/03/12 11:31:44;;;;;;;2.00;1.42;;;;;;;;;;7585941;19;20290;-74
2024/03/12 11:34:32;;;;;;;2.75;1.55;;;;;;;;;;7581640;19;20098;-73
2024/03/12 11:37:16;;;;;;;3.20;1.55;;;;;;;;;;7583128;19;20028;-76
2024/03/12 11:40:09;;;;;;;2.80;1.23;;;;;;;;;;7574853;19;20021;-75
2024/03/12 11:42:44;;;;;;;1.85;1.52;;;;;;;;;;7582943;19;20014;-74
2024/03/12 11:45:35;;;;;;;1.90;1.50;;;;;;;;;;7581023;19;20077;-74
2024/03/12 11:48:09;;;;;;;2.10;1.58;;;;;;;;;;7583711;19;20006;-76
2024/03/12 11:50:47;;;;;;;3.58;1.70;;;;;;;;;;7581102;19;20370;-75
2024/03/12 11:53:22;;;;;;;4.05;1.50;;;;;;;;;;7583584;19;20702;-74
2024/03/12 11:55:55;;;;;;;2.63;1.50;;;;;;;;;;7570766;19;20010;-74
2024/03/12 11:58:33;;;;;;;1.85;1.45;;;;;;;;;;7582837;19;20932;-73
2024/03/12 12:01:09;;;;;;;3.20;1.67;;;;;;;;;;7582857;19;21028;-74
2024/03/12 12:03:42;;;;;;;1.52;1.30;;;;;;;;;;7584669;19;20018;-74
2024/03/12 12:06:18;;;;;;;;;;;;;;;;;;7583243;19;20033;-74
2024/03/12 12:08:50;;;;;;;2.63;2.05;;;;;;;;;;7568851;19;20353;-73
2024/03/12 12:11:36;;;;;;;2.70;1.70;;;;;;;;;;7578399;19;20109;-74
2024/03/12 12:14:11;;;;;;;2.75;2.13;;;;;;;;;;7576439;19;20014;-74
2024/03/12 12:16:43;;;;;;;1.98;1.75;;;;;;;;;;7577108;19;20022;-74
2024/03/12 12:19:17;;;;;;;2.33;1.70;;;;;;;;;;7552674;19;20022;-74
2024/03/12 12:21:59;;;;;;;1.55;1.45;;;;;;;;;;7559023;19;20014;-74
2024/03/12 12:24:32;;;;;;;2.15;1.73;;;;;;;;;;7539655;19;20006;-74
2024/03/12 12:27:05;;;;;;;2.10;1.70;;;;;;;;;;7572935;19;20023;-74
2024/03/12 12:29:41;;;;;;;3.55;1.70;;;;;;;;;;7547276;19;26295;-74
2024/03/12 12:32:14;;;;;;;2.25;2.00;;;;;;;;;;7560108;19;20025;-74
2024/03/12 12:34:47;;;;;;;3.33;1.77;;;;;;;;;;7557558;19;20056;-75
2024/03/12 12:37:21;;;;;;;1.90;1.70;;;;;;;;;;7526394;19;20022;-75
2024/03/12 12:39:54;;;;;;;2.03;1.67;;;;;;;;;;7536528;19;20796;-75
2024/03/12 12:42:27;;;;;;;1.63;1.52;;;;;;;;;;7522055;19;20038;-75
2024/03/12 12:45:05;;;;;;;2.40;1.50;;;;;;;;;;7542220;19;20060;-75
2024/03/12 12:47:48;;;;;;;2.72;1.20;;;;;;;;;;7546873;19;20523;-74
2024/03/12 12:50:35;;;;;;;1.95;1.50;;;;;;;;;;7542021;19;20022;-76
2024/03/12 12:53:09;;;;;;;1.92;1.45;;;;;;;;;;7573335;19;20018;-73
2024/03/12 12:55:44;;;;;;;1.50;1.10;;;;;;;;;;7565920;19;20114;-73
2024/03/12 12:58:23;;;;;;;2.10;1.33;;;;;;;;;;7574321;19;20044;-75
2024/03/12 13:01:00;;;;;;;5.72;3.55;;;;;;;;;;7564297;19;20022;-75
2024/03/12 13:03:38;;;;;;;25.55;10.25;;;;;;;;;;7574094;19;20011;-74
2024/03/12 13:06:18;;;;;;;8.77;4.72;;;;;;;;;;7565939;19;20022;-74
2024/03/12 13:08:52;;;;;;;6.10;3.33;;;;;;;;;;7563245;19;20125;-74
2024/03/12 13:11:27;;;;;;;;;;;;;;;;;;7554744;19;20023;-74
2024/03/12 13:14:01;;;;;;;4.70;3.00;;;;;;;;;;7571183;19;19947;-74
2024/03/12 13:16:36;;;;;;;4.47;1.55;;;;;;;;;;7576588;19;20029;-74
2024/03/12 13:19:11;;;;;;;2.20;1.65;;;;;;;;;;7554476;19;20014;-74
2024/03/12 13:21:44;;;;;;;;;;;;;;;;;;7569767;19;20060;-74
2024/03/12 13:24:19;;;;;;;1.70;1.55;;;;;;;;;;7546833;19;19989;-74
2024/03/12 13:26:52;;;;;;;3.28;1.70;;;;;;;;;;7565984;19;20014;-74
2024/03/12 13:29:25;;;;;;;1.55;1.30;;;;;;;;;;7580395;19;20046;-74
2024/03/12 13:31:58;;;;;;;3.23;1.80;;;;;;;;;;7574190;19;20045;-73
2024/03/12 13:34:31;;;;;;;1.70;1.60;;;;;;;;;;7585899;19;20287;-74
2024/03/12 13:37:07;;;;;;;;;;;;;;;;;;7565028;19;20037;-75
2024/03/12 13:39:40;;;;;;;3.90;1.38;;;;;;;;;;7556570;19;19915;-73
2024/03/12 13:42:12;;;;;;;1.65;1.27;;;;;;;;;;7543819;19;20030;-73
2024/03/12 13:44:45;;;;;;;2.85;1.70;;;;;;;;;;7577213;19;20022;-73
2024/03/12 13:47:18;;;;;;;2.17;1.67;;;;;;;;;;7570562;19;20018;-74
2024/03/12 13:49:54;;;;;;;2.67;1.63;;;;;;;;;;7540965;19;20295;-75
2024/03/12 13:52:27;;;;;;;4.70;1.57;;;;;;;;;;7550619;19;20011;-75
2024/03/12 13:55:02;;;;;;;1.70;1.33;;;;;;;;;;7573285;19;21285;-74
2024/03/12 13:57:38;;;;;;;4.57;1.67;;;;;;;;;;7580741;19;20496;-73
2024/03/12 14:00:12;;;;;;;2.88;1.70;;;;;;;;;;7567174;19;20022;-73
2024/03/12 14:02:44;;;;;;;3.13;1.60;;;;;;;;;;7566037;19;20156;-73
2024/03/12 14:05:18;;;;;;;2.23;1.90;;;;;;;;;;7566472;19;20014;-74
2024/03/12 14:07:53;;;;;;;3.70;2.20;;;;;;;;;;7569474;19;22561;-73
2024/03/12 14:10:26;;;;;;;3.67;1.90;;;;;;;;;;7560598;19;20093;-73
2024/03/12 14:12:59;;;;;;;2.40;2.13;;;;;;;;;;7553481;19;20070;-73
2024/03/12 14:15:33;;;;;;;2.80;2.53;;;;;;;;;;7536056;19;20054;-72
2024/03/12 14:18:07;;;;;;;3.60;1.85;;;;;;;;;;7544743;19;20018;-73
2024/03/12 14:20:40;;;;;;;2.65;2.28;;;;;;;;;;7561340;19;20014;-74
2024/03/12 14:23:13;;;;;;;3.13;2.25;;;;;;;;;;7553635;19;20038;-73
2024/03/12 14:25:46;;;;;;;3.53;2.70;;;;;;;;;;7548311;19;20067;-73
2024/03/12 14:28:19;;;;;;;5.27;2.87;;;;;;;;;;7536489;19;21036;-73
2024/03/12 14:30:54;;;;;;;6.75;3.03;;;;;;;;;;7554772;19;20023;-75
2024/03/12 14:33:27;;;;;;;4.53;3.22;;;;;;;;;;7540545;19;20022;-73
2024/03/12 14:36:01;;;;;;;4.75;3.40;;;;;;;;;;7538977;19;20105;-73
2024/03/12 14:38:34;;;;;;;6.90;3.35;;;;;;;;;;7542918;19;20487;-73
2024/03/12 14:41:07;;;;;;;9.40;3.65;;;;;;;;;;7540388;19;20026;-73
2024/03/12 14:43:40;;;;;;;6.65;3.63;;;;;;;;;;7559370;19;20018;-73
2024/03/12 14:46:13;;;;;;;5.45;3.50;;;;;;;;;;7489596;19;20015;-72
2024/03/12 14:48:46;;;;;;;5.72;3.53;;;;;;;;;;7524314;19;21357;-73
2024/03/12 14:51:19;;;;;;;5.20;3.20;;;;;;;;;;7564393;19;21106;-74
2024/03/12 14:53:52;;;;;;;5.80;3.57;;;;;;;;;;7555481;19;20018;-72
2024/03/12 14:56:26;;;;;;;5.57;3.60;;;;;;;;;;7534925;19;20007;-73
2024/03/12 14:58:59;;;;;;;;;;;;;;;;;;7556354;19;20785;-73
2024/03/12 15:01:32;;;;;;;8.80;4.85;;;;;;;;;;7517151;19;19962;-73
2024/03/12 15:04:05;;;;;;;5.93;3.67;;;;;;;;;;7564312;19;20992;-73
2024/03/12 15:06:38;;;;;;;7.18;4.32;;;;;;;;;;7578289;19;20022;-73
2024/03/12 15:09:14;;;;;;;6.90;4.68;;;;;;;;;;7536384;19;20555;-75
2024/03/12 15:11:47;;;;;;;7.13;4.72;;;;;;;;;;7538595;19;20085;-74
2024/03/12 15:14:22;;;;;;;8.90;4.93;;;;;;;;;;7557960;19;20010;-73
2024/03/12 15:16:56;;;;;;;7.50;4.50;;;;;;;;;;7558217;19;20018;-74
2024/03/12 15:19:29;;;;;;;8.98;4.93;;;;;;;;;;7567067;19;20258;-74
2024/03/12 15:22:05;;;;;;;8.57;4.90;;;;;;;;;;7562026;19;20082;-74
2024/03/12 15:24:39;;;;;;;8.23;4.80;;;;;;;;;;7568813;19;20421;-73
2024/03/12 15:27:16;;;;;;;7.03;4.15;;;;;;;;;;7573569;19;20026;-73
2024/03/12 15:29:53;;;;;;;11.60;4.40;;;;;;;;;;7554420;19;20010;-73
2024/03/12 15:32:26;;;;;;;8.68;5.13;;;;;;;;;;7549175;19;20022;-73